sensor_id;sensor_type;location;lat;lon;timestamp;P1;durP1;ratioP1;P2;durP2;ratioP2
45940;SDS011;31858;46.008;8.978;2024-01-10T00:04:01;35.15;;;24.67;;
45940;SDS011;31858;46.008;8.978;2024-01-10T00:14:04;35.83;;;25.10;;
45940;SDS011;31858;46.008;8.978;2024-01-10T00:24:07;39.88;;;27.30;;
45940;SDS011;31858;46.008;8.978;2024-01-10T00:34:08;42.30;;;27.58;;
45940;SDS011;31858;46.008;8.978;2024-01-10T00:44:11;35.45;;;25.90;;
45940;SDS011;31858;46.008;8.978;2024-01-10T00:54:13;34.67;;;25.00;;
45940;SDS011;31858;46.008;8.978;2024-01-10T01:04:16;31.10;;;23.95;;
45940;SDS011;31858;46.008;8.978;2024-01-10T01:14:18;33.70;;;24.67;;
45940;SDS011;31858;46.008;8.978;2024-01-10T01:24:21;34.35;;;25.08;;
45940;SDS011;31858;46.008;8.978;2024-01-10T01:34:22;34.80;;;25.95;;
45940;SDS011;31858;46.008;8.978;2024-01-10T01:44:25;34.80;;;25.20;;
45940;SDS011;31858;46.008;8.978;2024-01-10T01:54:27;35.92;;;24.55;;
45940;SDS011;31858;46.008;8.978;2024-01-10T02:04:31;40.83;;;27.58;;
45940;SDS011;31858;46.008;8.978;2024-01-10T02:14:32;39.70;;;28.27;;
45940;SDS011;31858;46.008;8.978;2024-01-10T02:24:36;40.53;;;28.92;;
45940;SDS011;31858;46.008;8.978;2024-01-10T02:34:39;40.50;;;29.50;;
45940;SDS011;31858;46.008;8.978;2024-01-10T02:44:40;42.60;;;28.40;;
45940;SDS011;31858;46.008;8.978;2024-01-10T02:54:43;39.15;;;26.63;;
45940;SDS011;31858;46.008;8.978;2024-01-10T03:04:45;44.78;;;30.40;;
45940;SDS011;31858;46.008;8.978;2024-01-10T03:14:48;46.28;;;31.63;;
45940;SDS011;31858;46.008;8.978;2024-01-10T03:24:49;49.00;;;32.00;;
45940;SDS011;31858;46.008;8.978;2024-01-10T03:34:52;44.45;;;30.85;;
45940;SDS011;31858;46.008;8.978;2024-01-10T03:44:54;44.95;;;32.60;;
45940;SDS011;31858;46.008;8.978;2024-01-10T03:54:57;43.00;;;30.50;;
45940;SDS011;31858;46.008;8.978;2024-01-10T04:04:58;47.55;;;31.33;;
45940;SDS011;31858;46.008;8.978;2024-01-10T04:15:01;50.63;;;31.88;;
45940;SDS011;31858;46.008;8.978;2024-01-10T04:25:04;49.40;;;33.38;;
45940;SDS011;31858;46.008;8.978;2024-01-10T04:35:09;49.42;;;32.00;;
45940;SDS011;31858;46.008;8.978;2024-01-10T04:45:11;50.75;;;33.83;;
45940;SDS011;31858;46.008;8.978;2024-01-10T04:55:13;49.35;;;32.88;;
45940;SDS011;31858;46.008;8.978;2024-01-10T05:05:15;52.10;;;33.45;;
45940;SDS011;31858;46.008;8.978;2024-01-10T05:15:24;48.90;;;33.50;;
45940;SDS011;31858;46.008;8.978;2024-01-10T05:25:26;49.33;;;31.98;;
45940;SDS011;31858;46.008;8.978;2024-01-10T05:35:30;49.30;;;32.53;;
45940;SDS011;31858;46.008;8.978;2024-01-10T05:45:32;48.83;;;32.55;;
45940;SDS011;31858;46.008;8.978;2024-01-10T05:55:35;54.85;;;34.00;;
45940;SDS011;31858;46.008;8.978;2024-01-10T06:05:37;56.53;;;34.40;;
45940;SDS011;31858;46.008;8.978;2024-01-10T06:15:40;57.35;;;35.67;;
45940;SDS011;31858;46.008;8.978;2024-01-10T06:25:42;60.20;;;37.80;;
45940;SDS011;31858;46.008;8.978;2024-01-10T06:35:45;56.40;;;34.65;;
45940;SDS011;31858;46.008;8.978;2024-01-10T06:45:47;61.33;;;36.30;;
45940;SDS011;31858;46.008;8.978;2024-01-10T06:55:50;58.42;;;32.80;;
45940;SDS011;31858;46.008;8.978;2024-01-10T07:05:52;52.90;;;34.03;;
45940;SDS011;31858;46.008;8.978;2024-01-10T07:15:55;54.63;;;33.03;;
45940;SDS011;31858;46.008;8.978;2024-01-10T07:25:56;45.28;;;30.83;;
45940;SDS011;31858;46.008;8.978;2024-01-10T07:35:59;58.53;;;32.50;;
45940;SDS011;31858;46.008;8.978;2024-01-10T07:46:02;47.30;;;30.77;;
45940;SDS011;31858;46.008;8.978;2024-01-10T07:56:05;50.22;;;31.65;;
45940;SDS011;31858;46.008;8.978;2024-01-10T08:06:07;50.05;;;30.30;;
45940;SDS011;31858;46.008;8.978;2024-01-10T08:16:11;49.00;;;29.70;;
45940;SDS011;31858;46.008;8.978;2024-01-10T08:26:13;45.30;;;30.05;;
45940;SDS011;31858;46.008;8.978;2024-01-10T08:36:16;51.45;;;31.40;;
45940;SDS011;31858;46.008;8.978;2024-01-10T08:46:17;48.08;;;29.02;;
45940;SDS011;31858;46.008;8.978;2024-01-10T08:56:22;49.88;;;28.25;;
45940;SDS011;31858;46.008;8.978;2024-01-10T09:06:23;42.40;;;27.40;;
45940;SDS011;31858;46.008;8.978;2024-01-10T09:16:26;40.42;;;26.55;;
45940;SDS011;31858;46.008;8.978;2024-01-10T09:26:28;46.10;;;28.17;;
45940;SDS011;31858;46.008;8.978;2024-01-10T09:36:31;41.72;;;27.23;;
45940;SDS011;31858;46.008;8.978;2024-01-10T09:46:33;41.08;;;26.30;;
45940;SDS011;31858;46.008;8.978;2024-01-10T09:56:41;43.08;;;26.65;;
45940;SDS011;31858;46.008;8.978;2024-01-10T10:06:42;46.03;;;29.85;;
45940;SDS011;31858;46.008;8.978;2024-01-10T10:16:46;47.75;;;27.63;;
45940;SDS011;31858;46.008;8.978;2024-01-10T10:26:48;39.88;;;26.65;;
45940;SDS011;31858;46.008;8.978;2024-01-10T10:36:51;43.80;;;27.90;;
45940;SDS011;31858;46.008;8.978;2024-01-10T10:46:53;42.72;;;25.25;;
45940;SDS011;31858;46.008;8.978;2024-01-10T10:56:57;40.95;;;26.52;;
45940;SDS011;31858;46.008;8.978;2024-01-10T11:07:02;41.33;;;25.77;;
45940;SDS011;31858;46.008;8.978;2024-01-10T11:17:14;42.10;;;26.13;;
45940;SDS011;31858;46.008;8.978;2024-01-10T11:27:30;38.00;;;24.98;;
45940;SDS011;31858;46.008;8.978;2024-01-10T11:37:39;38.58;;;24.52;;
45940;SDS011;31858;46.008;8.978;2024-01-10T11:47:43;41.17;;;25.48;;
45940;SDS011;31858;46.008;8.978;2024-01-10T11:57:46;37.08;;;24.40;;
45940;SDS011;31858;46.008;8.978;2024-01-10T12:08:09;35.75;;;23.27;;
45940;SDS011;31858;46.008;8.978;2024-01-10T12:18:12;36.20;;;22.20;;
45940;SDS011;31858;46.008;8.978;2024-01-10T12:28:15;40.42;;;24.33;;
45940;SDS011;31858;46.008;8.978;2024-01-10T12:38:18;40.58;;;25.48;;
45940;SDS011;31858;46.008;8.978;2024-01-10T12:48:20;38.20;;;23.40;;
45940;SDS011;31858;46.008;8.978;2024-01-10T12:58:23;38.08;;;22.65;;
45940;SDS011;31858;46.008;8.978;2024-01-10T13:08:24;39.20;;;23.15;;
45940;SDS011;31858;46.008;8.978;2024-01-10T13:18:27;37.22;;;22.63;;
45940;SDS011;31858;46.008;8.978;2024-01-10T13:28:29;39.58;;;23.40;;
45940;SDS011;31858;46.008;8.978;2024-01-10T13:38:32;40.00;;;22.80;;
45940;SDS011;31858;46.008;8.978;2024-01-10T13:48:35;41.42;;;21.75;;
45940;SDS011;31858;46.008;8.978;2024-01-10T13:58:38;36.05;;;20.55;;
45940;SDS011;31858;46.008;8.978;2024-01-10T14:08:39;32.83;;;21.23;;
45940;SDS011;31858;46.008;8.978;2024-01-10T14:18:46;34.00;;;20.60;;
45940;SDS011;31858;46.008;8.978;2024-01-10T14:28:48;31.17;;;19.98;;
45940;SDS011;31858;46.008;8.978;2024-01-10T14:38:54;37.95;;;24.55;;
45940;SDS011;31858;46.008;8.978;2024-01-10T14:48:56;36.25;;;20.67;;
45940;SDS011;31858;46.008;8.978;2024-01-10T14:58:59;32.03;;;22.17;;
45940;SDS011;31858;46.008;8.978;2024-01-10T15:09:00;36.40;;;23.35;;
45940;SDS011;31858;46.008;8.978;2024-01-10T15:19:04;32.80;;;21.30;;
45940;SDS011;31858;46.008;8.978;2024-01-10T15:29:06;36.50;;;21.15;;
45940;SDS011;31858;46.008;8.978;2024-01-10T15:39:09;36.42;;;21.52;;
45940;SDS011;31858;46.008;8.978;2024-01-10T15:49:12;36.88;;;22.65;;
45940;SDS011;31858;46.008;8.978;2024-01-10T15:59:16;32.85;;;20.58;;
45940;SDS011;31858;46.008;8.978;2024-01-10T16:09:18;34.10;;;21.20;;
45940;SDS011;31858;46.008;8.978;2024-01-10T16:19:21;37.75;;;22.98;;
45940;SDS011;31858;46.008;8.978;2024-01-10T16:29:23;37.30;;;23.00;;
45940;SDS011;31858;46.008;8.978;2024-01-10T16:39:26;36.80;;;22.27;;
45940;SDS011;31858;46.008;8.978;2024-01-10T16:49:28;36.55;;;23.52;;
45940;SDS011;31858;46.008;8.978;2024-01-10T16:59:30;44.75;;;27.67;;
45940;SDS011;31858;46.008;8.978;2024-01-10T17:09:32;47.80;;;26.88;;
45940;SDS011;31858;46.008;8.978;2024-01-10T17:19:36;44.85;;;26.05;;
45940;SDS011;31858;46.008;8.978;2024-01-10T17:29:37;44.75;;;27.77;;
45940;SDS011;31858;46.008;8.978;2024-01-10T17:39:41;38.85;;;24.85;;
45940;SDS011;31858;46.008;8.978;2024-01-10T17:49:42;38.08;;;24.98;;
45940;SDS011;31858;46.008;8.978;2024-01-10T17:59:45;41.08;;;23.15;;
45940;SDS011;31858;46.008;8.978;2024-01-10T18:09:47;40.92;;;24.40;;
45940;SDS011;31858;46.008;8.978;2024-01-10T18:19:50;35.90;;;23.55;;
45940;SDS011;31858;46.008;8.978;2024-01-10T18:29:52;39.80;;;24.10;;
45940;SDS011;31858;46.008;8.978;2024-01-10T18:39:55;36.65;;;24.10;;
45940;SDS011;31858;46.008;8.978;2024-01-10T18:49:57;36.65;;;23.75;;
45940;SDS011;31858;46.008;8.978;2024-01-10T19:00:00;34.63;;;23.15;;
45940;SDS011;31858;46.008;8.978;2024-01-10T19:10:03;36.05;;;24.13;;
45940;SDS011;31858;46.008;8.978;2024-01-10T19:20:07;34.97;;;23.08;;
45940;SDS011;31858;46.008;8.978;2024-01-10T19:30:09;37.47;;;25.60;;
45940;SDS011;31858;46.008;8.978;2024-01-10T19:40:21;32.15;;;22.05;;
45940;SDS011;31858;46.008;8.978;2024-01-10T19:50:23;36.50;;;23.63;;
45940;SDS011;31858;46.008;8.978;2024-01-10T20:00:26;36.92;;;23.85;;
45940;SDS011;31858;46.008;8.978;2024-01-10T20:10:28;36.97;;;24.45;;
45940;SDS011;31858;46.008;8.978;2024-01-10T20:20:31;38.35;;;24.10;;
45940;SDS011;31858;46.008;8.978;2024-01-10T20:30:32;42.80;;;25.38;;
45940;SDS011;31858;46.008;8.978;2024-01-10T20:40:35;33.22;;;21.90;;
45940;SDS011;31858;46.008;8.978;2024-01-10T20:50:37;41.53;;;23.42;;
45940;SDS011;31858;46.008;8.978;2024-01-10T21:00:40;35.13;;;22.40;;
45940;SDS011;31858;46.008;8.978;2024-01-10T21:10:41;35.17;;;21.88;;
45940;SDS011;31858;46.008;8.978;2024-01-10T21:20:44;37.38;;;21.35;;
45940;SDS011;31858;46.008;8.978;2024-01-10T21:30:46;32.03;;;21.88;;
45940;SDS011;31858;46.008;8.978;2024-01-10T21:40:49;33.97;;;21.35;;
45940;SDS011;31858;46.008;8.978;2024-01-10T21:50:50;34.70;;;22.50;;
45940;SDS011;31858;46.008;8.978;2024-01-10T22:00:54;36.70;;;23.00;;
45940;SDS011;31858;46.008;8.978;2024-01-10T22:10:55;38.30;;;22.75;;
45940;SDS011;31858;46.008;8.978;2024-01-10T22:20:58;33.50;;;22.15;;
45940;SDS011;31858;46.008;8.978;2024-01-10T22:31:00;40.78;;;25.13;;
45940;SDS011;31858;46.008;8.978;2024-01-10T22:41:03;40.08;;;24.73;;
45940;SDS011;31858;46.008;8.978;2024-01-10T22:51:05;32.97;;;22.52;;
45940;SDS011;31858;46.008;8.978;2024-01-10T23:01:08;40.50;;;22.30;;
45940;SDS011;31858;46.008;8.978;2024-01-10T23:11:09;34.15;;;23.00;;
45940;SDS011;31858;46.008;8.978;2024-01-10T23:21:14;35.03;;;23.02;;
45940;SDS011;31858;46.008;8.978;2024-01-10T23:31:16;44.38;;;23.85;;
45940;SDS011;31858;46.008;8.978;2024-01-10T23:41:19;37.17;;;21.75;;
45940;SDS011;31858;46.008;8.978;2024-01-10T23:51:21;40.55;;;24.40;;
